Terminal Aerodrome Forecast
Issued by NWS Goodland, KS

Home | Current Version | Previous Version | Text Only | Print | Product List | Glossary On
Versions: 1 2 3 4 5 6 7 8 9 10 11 12 13 14 15 16
048
FTUS43 KGLD 190529
TAFGLD
TAF
KGLD 190529Z 1906/2006 19011KT P6SM SCT200
     FM190800 22006KT 6SM BR SCT005
      TEMPO 1910/1914 3SM BR BKN005
     FM191500 30006KT P6SM SCT250=

USA.gov is the U.S. government's official web portal to all federal, state and local government web resources and services.